Terminal Aerodrome Forecast
Issued by NWS

Home | Current Version | Previous Version | Text Only | Print | Product List | Glossary On
Versions: 1 2 3 4 5 6 7 8 9 10 11 12 13 14 15 16 17 18 19 20 21 22 23 24 25
000
FTUS43 KIND 032320
TAFLAF
TAF
KLAF 032320Z 0400/0424 26005KT P6SM BKN100
     FM040900 23008KT P6SM -SHRA BKN090
     FM041100 25010KT 6SM SHRA OVC025
     FM041500 30014G22KT P6SM VCSH OVC015
     FM041800 33016G27KT P6SM BKN035
      AMD LTD TO CLD WIND AND VIS 0401/0413=

USA.gov is the U.S. government's official web portal to all federal, state and local government web resources and services.